sensor_id;sensor_type;location;lat;lon;timestamp;temperature;humidity
25640;DHT22;13497;48.322;16.204;2023-12-29T00:00:07;4.10;99.90
25640;DHT22;13497;48.322;16.204;2023-12-29T00:02:34;4.10;99.90
25640;DHT22;13497;48.322;16.204;2023-12-29T00:05:00;4.00;99.90
25640;DHT22;13497;48.322;16.204;2023-12-29T00:07:26;4.10;99.90
25640;DHT22;13497;48.322;16.204;2023-12-29T00:09:52;4.20;99.90
25640;DHT22;13497;48.322;16.204;2023-12-29T00:12:17;4.10;99.90
25640;DHT22;13497;48.322;16.204;2023-12-29T00:14:43;4.20;99.90
25640;DHT22;13497;48.322;16.204;2023-12-29T00:17:09;4.20;99.90
25640;DHT22;13497;48.322;16.204;2023-12-29T00:19:34;4.10;99.90
25640;DHT22;13497;48.322;16.204;2023-12-29T00:22:00;4.20;99.90
25640;DHT22;13497;48.322;16.204;2023-12-29T00:24:29;4.30;99.90
25640;DHT22;13497;48.322;16.204;2023-12-29T00:26:57;4.40;99.90
25640;DHT22;13497;48.322;16.204;2023-12-29T00:29:24;4.40;99.90
25640;DHT22;13497;48.322;16.204;2023-12-29T00:31:50;4.30;99.90
25640;DHT22;13497;48.322;16.204;2023-12-29T00:34:15;4.20;99.90
25640;DHT22;13497;48.322;16.204;2023-12-29T00:36:41;4.20;99.90
25640;DHT22;13497;48.322;16.204;2023-12-29T00:39:06;4.30;99.90
25640;DHT22;13497;48.322;16.204;2023-12-29T00:41:32;4.30;99.90
25640;DHT22;13497;48.322;16.204;2023-12-29T00:43:58;4.30;99.90
25640;DHT22;13497;48.322;16.204;2023-12-29T00:46:26;4.20;99.90
25640;DHT22;13497;48.322;16.204;2023-12-29T00:48:52;4.40;99.90
25640;DHT22;13497;48.322;16.204;2023-12-29T00:51:17;4.60;99.90
25640;DHT22;13497;48.322;16.204;2023-12-29T00:53:43;4.60;99.90
25640;DHT22;13497;48.322;16.204;2023-12-29T00:56:12;4.50;99.90
25640;DHT22;13497;48.322;16.204;2023-12-29T00:58:38;4.40;99.90
25640;DHT22;13497;48.322;16.204;2023-12-29T01:01:06;4.40;99.90
25640;DHT22;13497;48.322;16.204;2023-12-29T01:03:33;4.30;99.90
25640;DHT22;13497;48.322;16.204;2023-12-29T01:05:59;4.30;99.90
25640;DHT22;13497;48.322;16.204;2023-12-29T01:08:24;4.20;99.90
25640;DHT22;13497;48.322;16.204;2023-12-29T01:10:50;4.30;99.90
25640;DHT22;13497;48.322;16.204;2023-12-29T01:13:16;4.30;99.90
25640;DHT22;13497;48.322;16.204;2023-12-29T01:15:41;4.30;99.90
25640;DHT22;13497;48.322;16.204;2023-12-29T01:18:11;4.40;99.90
25640;DHT22;13497;48.322;16.204;2023-12-29T01:20:37;4.40;99.90
25640;DHT22;13497;48.322;16.204;2023-12-29T01:23:05;4.40;99.90
25640;DHT22;13497;48.322;16.204;2023-12-29T01:25:33;4.40;99.90
25640;DHT22;13497;48.322;16.204;2023-12-29T01:27:59;4.40;99.90
25640;DHT22;13497;48.322;16.204;2023-12-29T01:30:24;4.40;99.90
25640;DHT22;13497;48.322;16.204;2023-12-29T01:32:50;4.40;99.90
25640;DHT22;13497;48.322;16.204;2023-12-29T01:35:16;4.40;99.90
25640;DHT22;13497;48.322;16.204;2023-12-29T01:37:42;4.40;99.90
25640;DHT22;13497;48.322;16.204;2023-12-29T01:40:08;4.60;99.90
25640;DHT22;13497;48.322;16.204;2023-12-29T01:42:34;4.60;99.90
25640;DHT22;13497;48.322;16.204;2023-12-29T01:45:00;4.60;99.90
25640;DHT22;13497;48.322;16.204;2023-12-29T01:47:27;4.50;99.90
25640;DHT22;13497;48.322;16.204;2023-12-29T01:49:53;4.50;99.90
25640;DHT22;13497;48.322;16.204;2023-12-29T01:52:19;4.50;99.90
25640;DHT22;13497;48.322;16.204;2023-12-29T01:54:49;4.50;99.90
25640;DHT22;13497;48.322;16.204;2023-12-29T01:57:15;4.50;99.90
25640;DHT22;13497;48.322;16.204;2023-12-29T01:59:41;4.40;99.90
25640;DHT22;13497;48.322;16.204;2023-12-29T02:02:06;4.40;99.90
25640;DHT22;13497;48.322;16.204;2023-12-29T02:04:33;4.40;99.90
25640;DHT22;13497;48.322;16.204;2023-12-29T02:06:59;4.50;99.90
25640;DHT22;13497;48.322;16.204;2023-12-29T02:09:25;4.40;99.90
25640;DHT22;13497;48.322;16.204;2023-12-29T02:11:50;4.50;99.90
25640;DHT22;13497;48.322;16.204;2023-12-29T02:14:17;4.50;99.90
25640;DHT22;13497;48.322;16.204;2023-12-29T02:19:40;4.50;99.90
25640;DHT22;13497;48.322;16.204;2023-12-29T02:22:06;4.60;99.90
25640;DHT22;13497;48.322;16.204;2023-12-29T02:24:36;4.60;99.90
25640;DHT22;13497;48.322;16.204;2023-12-29T02:27:19;4.60;99.90
25640;DHT22;13497;48.322;16.204;2023-12-29T02:30:17;4.60;99.90
25640;DHT22;13497;48.322;16.204;2023-12-29T02:32:39;4.60;99.90
25640;DHT22;13497;48.322;16.204;2023-12-29T02:35:09;4.70;99.90
25640;DHT22;13497;48.322;16.204;2023-12-29T02:37:36;4.60;99.90
25640;DHT22;13497;48.322;16.204;2023-12-29T02:40:03;4.60;99.90
25640;DHT22;13497;48.322;16.204;2023-12-29T02:42:29;4.70;99.90
25640;DHT22;13497;48.322;16.204;2023-12-29T02:44:54;4.80;99.90
25640;DHT22;13497;48.322;16.204;2023-12-29T02:47:20;4.80;99.90
25640;DHT22;13497;48.322;16.204;2023-12-29T02:49:47;4.80;99.90
25640;DHT22;13497;48.322;16.204;2023-12-29T02:52:13;4.80;99.90
25640;DHT22;13497;48.322;16.204;2023-12-29T02:54:39;4.70;99.90
25640;DHT22;13497;48.322;16.204;2023-12-29T02:57:04;4.70;99.90
25640;DHT22;13497;48.322;16.204;2023-12-29T02:59:30;4.70;99.90
25640;DHT22;13497;48.322;16.204;2023-12-29T03:01:56;4.70;99.90
25640;DHT22;13497;48.322;16.204;2023-12-29T03:04:21;4.70;99.90
25640;DHT22;13497;48.322;16.204;2023-12-29T03:06:48;4.70;99.90
25640;DHT22;13497;48.322;16.204;2023-12-29T03:09:14;4.70;99.90
25640;DHT22;13497;48.322;16.204;2023-12-29T03:11:39;4.70;99.90
25640;DHT22;13497;48.322;16.204;2023-12-29T03:14:05;4.70;99.90
25640;DHT22;13497;48.322;16.204;2023-12-29T03:16:31;4.90;99.90
25640;DHT22;13497;48.322;16.204;2023-12-29T03:18:56;4.80;99.90
25640;DHT22;13497;48.322;16.204;2023-12-29T03:21:22;4.70;99.90
25640;DHT22;13497;48.322;16.204;2023-12-29T03:23:48;4.60;99.90
25640;DHT22;13497;48.322;16.204;2023-12-29T03:26:13;4.70;99.90
25640;DHT22;13497;48.322;16.204;2023-12-29T03:28:39;4.60;99.90
25640;DHT22;13497;48.322;16.204;2023-12-29T03:31:04;4.50;99.90
25640;DHT22;13497;48.322;16.204;2023-12-29T03:33:32;4.50;99.90
25640;DHT22;13497;48.322;16.204;2023-12-29T03:35:57;4.50;99.90
25640;DHT22;13497;48.322;16.204;2023-12-29T03:38:23;4.40;99.90
25640;DHT22;13497;48.322;16.204;2023-12-29T03:40:49;4.50;99.90
25640;DHT22;13497;48.322;16.204;2023-12-29T03:43:14;4.60;99.90
25640;DHT22;13497;48.322;16.204;2023-12-29T03:45:40;4.60;99.90
25640;DHT22;13497;48.322;16.204;2023-12-29T03:48:06;4.60;99.90
25640;DHT22;13497;48.322;16.204;2023-12-29T03:50:33;4.60;99.90
25640;DHT22;13497;48.322;16.204;2023-12-29T03:52:58;4.70;99.90
25640;DHT22;13497;48.322;16.204;2023-12-29T03:55:24;4.80;99.90
25640;DHT22;13497;48.322;16.204;2023-12-29T03:57:50;4.80;99.90
25640;DHT22;13497;48.322;16.204;2023-12-29T04:00:15;4.90;99.90
25640;DHT22;13497;48.322;16.204;2023-12-29T04:02:41;4.90;99.90
25640;DHT22;13497;48.322;16.204;2023-12-29T04:05:09;4.90;99.90
25640;DHT22;13497;48.322;16.204;2023-12-29T04:07:34;4.90;99.90
25640;DHT22;13497;48.322;16.204;2023-12-29T04:10:00;4.90;99.90
25640;DHT22;13497;48.322;16.204;2023-12-29T04:12:26;5.10;99.90
25640;DHT22;13497;48.322;16.204;2023-12-29T04:14:51;5.40;99.90
25640;DHT22;13497;48.322;16.204;2023-12-29T04:17:17;5.70;99.90
25640;DHT22;13497;48.322;16.204;2023-12-29T04:19:43;6.10;99.90
25640;DHT22;13497;48.322;16.204;2023-12-29T04:22:08;6.60;99.90
25640;DHT22;13497;48.322;16.204;2023-12-29T04:24:37;7.10;99.90
25640;DHT22;13497;48.322;16.204;2023-12-29T04:27:02;7.50;99.90
25640;DHT22;13497;48.322;16.204;2023-12-29T04:29:28;8.00;99.90
25640;DHT22;13497;48.322;16.204;2023-12-29T04:31:54;8.30;99.90
25640;DHT22;13497;48.322;16.204;2023-12-29T04:34:20;8.50;99.90
25640;DHT22;13497;48.322;16.204;2023-12-29T04:36:45;8.70;99.90
25640;DHT22;13497;48.322;16.204;2023-12-29T04:39:11;9.10;99.90
25640;DHT22;13497;48.322;16.204;2023-12-29T04:41:37;9.30;99.90
25640;DHT22;13497;48.322;16.204;2023-12-29T04:44:03;9.40;99.90
25640;DHT22;13497;48.322;16.204;2023-12-29T04:46:29;9.50;99.90
25640;DHT22;13497;48.322;16.204;2023-12-29T04:48:54;9.50;99.90
25640;DHT22;13497;48.322;16.204;2023-12-29T04:51:20;9.50;99.90
25640;DHT22;13497;48.322;16.204;2023-12-29T04:53:46;9.60;99.90
25640;DHT22;13497;48.322;16.204;2023-12-29T04:56:12;9.60;99.90
25640;DHT22;13497;48.322;16.204;2023-12-29T04:58:38;9.60;99.90
25640;DHT22;13497;48.322;16.204;2023-12-29T05:01:03;9.60;99.90
25640;DHT22;13497;48.322;16.204;2023-12-29T05:03:29;9.50;99.90
25640;DHT22;13497;48.322;16.204;2023-12-29T05:05:55;9.60;99.90
25640;DHT22;13497;48.322;16.204;2023-12-29T05:08:21;9.60;99.90
25640;DHT22;13497;48.322;16.204;2023-12-29T05:10:47;9.60;99.90
25640;DHT22;13497;48.322;16.204;2023-12-29T05:13:13;9.60;99.90
25640;DHT22;13497;48.322;16.204;2023-12-29T05:15:39;9.60;99.90
25640;DHT22;13497;48.322;16.204;2023-12-29T05:18:04;9.60;99.90
25640;DHT22;13497;48.322;16.204;2023-12-29T05:20:31;9.60;99.90
25640;DHT22;13497;48.322;16.204;2023-12-29T05:22:56;9.70;99.90
25640;DHT22;13497;48.322;16.204;2023-12-29T05:25:22;9.70;99.90
25640;DHT22;13497;48.322;16.204;2023-12-29T05:27:49;9.70;99.90
25640;DHT22;13497;48.322;16.204;2023-12-29T05:30:15;9.80;99.90
25640;DHT22;13497;48.322;16.204;2023-12-29T05:32:41;9.70;99.90
25640;DHT22;13497;48.322;16.204;2023-12-29T05:35:07;9.60;99.90
25640;DHT22;13497;48.322;16.204;2023-12-29T05:37:33;9.60;99.90
25640;DHT22;13497;48.322;16.204;2023-12-29T05:39:59;9.40;99.90
25640;DHT22;13497;48.322;16.204;2023-12-29T05:42:24;9.30;99.90
25640;DHT22;13497;48.322;16.204;2023-12-29T05:44:50;9.00;99.90
25640;DHT22;13497;48.322;16.204;2023-12-29T05:47:18;8.80;99.90
25640;DHT22;13497;48.322;16.204;2023-12-29T05:49:44;8.50;99.90
25640;DHT22;13497;48.322;16.204;2023-12-29T05:52:10;8.40;99.90
25640;DHT22;13497;48.322;16.204;2023-12-29T05:54:35;8.20;99.90
25640;DHT22;13497;48.322;16.204;2023-12-29T05:57:01;7.90;99.90
25640;DHT22;13497;48.322;16.204;2023-12-29T05:59:27;7.70;99.90
25640;DHT22;13497;48.322;16.204;2023-12-29T06:01:53;7.50;99.90
25640;DHT22;13497;48.322;16.204;2023-12-29T06:04:19;7.40;99.90
25640;DHT22;13497;48.322;16.204;2023-12-29T06:06:45;7.30;99.90
25640;DHT22;13497;48.322;16.204;2023-12-29T06:09:11;7.30;99.90
25640;DHT22;13497;48.322;16.204;2023-12-29T06:11:37;7.20;99.90
25640;DHT22;13497;48.322;16.204;2023-12-29T06:14:03;7.00;99.90
25640;DHT22;13497;48.322;16.204;2023-12-29T06:16:29;6.80;99.90
25640;DHT22;13497;48.322;16.204;2023-12-29T06:18:56;6.70;99.90
25640;DHT22;13497;48.322;16.204;2023-12-29T06:21:22;6.60;99.90
25640;DHT22;13497;48.322;16.204;2023-12-29T06:23:48;6.40;99.90
25640;DHT22;13497;48.322;16.204;2023-12-29T06:26:15;6.40;99.90
25640;DHT22;13497;48.322;16.204;2023-12-29T06:28:41;6.40;99.90
25640;DHT22;13497;48.322;16.204;2023-12-29T06:31:07;6.50;99.90
25640;DHT22;13497;48.322;16.204;2023-12-29T06:33:33;6.50;99.90
25640;DHT22;13497;48.322;16.204;2023-12-29T06:35:59;6.50;99.90
25640;DHT22;13497;48.322;16.204;2023-12-29T06:38:24;6.60;99.90
25640;DHT22;13497;48.322;16.204;2023-12-29T06:40:50;6.50;99.90
25640;DHT22;13497;48.322;16.204;2023-12-29T06:43:16;6.60;99.90
25640;DHT22;13497;48.322;16.204;2023-12-29T06:45:41;6.90;99.90
25640;DHT22;13497;48.322;16.204;2023-12-29T06:48:07;7.20;99.90
25640;DHT22;13497;48.322;16.204;2023-12-29T06:50:33;7.40;99.90
25640;DHT22;13497;48.322;16.204;2023-12-29T06:52:59;7.40;99.90
25640;DHT22;13497;48.322;16.204;2023-12-29T06:55:25;7.40;99.90
25640;DHT22;13497;48.322;16.204;2023-12-29T06:57:51;7.40;99.90
25640;DHT22;13497;48.322;16.204;2023-12-29T07:00:17;7.30;99.90
25640;DHT22;13497;48.322;16.204;2023-12-29T07:02:42;7.20;99.90
25640;DHT22;13497;48.322;16.204;2023-12-29T07:05:08;7.10;99.90
25640;DHT22;13497;48.322;16.204;2023-12-29T07:07:37;7.10;99.90
25640;DHT22;13497;48.322;16.204;2023-12-29T07:10:03;7.00;99.90
25640;DHT22;13497;48.322;16.204;2023-12-29T07:12:29;7.00;99.90
25640;DHT22;13497;48.322;16.204;2023-12-29T07:14:55;7.00;99.90
25640;DHT22;13497;48.322;16.204;2023-12-29T07:17:21;7.00;99.90
25640;DHT22;13497;48.322;16.204;2023-12-29T07:19:46;6.90;99.90
25640;DHT22;13497;48.322;16.204;2023-12-29T07:22:12;7.00;99.90
25640;DHT22;13497;48.322;16.204;2023-12-29T07:24:38;7.10;99.90
25640;DHT22;13497;48.322;16.204;2023-12-29T07:27:06;7.10;99.90
25640;DHT22;13497;48.322;16.204;2023-12-29T07:29:34;7.20;99.90
25640;DHT22;13497;48.322;16.204;2023-12-29T07:32:00;7.20;99.90
25640;DHT22;13497;48.322;16.204;2023-12-29T07:34:25;7.20;99.90
25640;DHT22;13497;48.322;16.204;2023-12-29T07:36:51;7.30;99.90
25640;DHT22;13497;48.322;16.204;2023-12-29T07:39:18;7.40;99.90
25640;DHT22;13497;48.322;16.204;2023-12-29T07:41:44;7.50;99.90
25640;DHT22;13497;48.322;16.204;2023-12-29T07:44:10;7.60;99.90
25640;DHT22;13497;48.322;16.204;2023-12-29T07:46:38;7.70;99.90
25640;DHT22;13497;48.322;16.204;2023-12-29T07:49:04;7.80;99.90
25640;DHT22;13497;48.322;16.204;2023-12-29T07:51:30;7.70;99.90
25640;DHT22;13497;48.322;16.204;2023-12-29T07:53:57;7.50;99.90
25640;DHT22;13497;48.322;16.204;2023-12-29T07:56:22;7.30;99.90
25640;DHT22;13497;48.322;16.204;2023-12-29T07:58:48;7.10;99.90
25640;DHT22;13497;48.322;16.204;2023-12-29T08:01:14;7.00;99.90
25640;DHT22;13497;48.322;16.204;2023-12-29T08:03:40;6.90;99.90
25640;DHT22;13497;48.322;16.204;2023-12-29T08:06:05;7.00;99.90
25640;DHT22;13497;48.322;16.204;2023-12-29T08:08:31;7.00;99.90
25640;DHT22;13497;48.322;16.204;2023-12-29T08:10:57;7.00;99.90
25640;DHT22;13497;48.322;16.204;2023-12-29T08:13:23;6.90;99.90
25640;DHT22;13497;48.322;16.204;2023-12-29T08:15:49;6.90;99.90
25640;DHT22;13497;48.322;16.204;2023-12-29T08:18:14;7.00;99.90
25640;DHT22;13497;48.322;16.204;2023-12-29T08:20:40;7.10;99.90
25640;DHT22;13497;48.322;16.204;2023-12-29T08:23:06;7.20;99.90
25640;DHT22;13497;48.322;16.204;2023-12-29T08:25:31;7.40;99.90
25640;DHT22;13497;48.322;16.204;2023-12-29T08:27:57;7.40;99.90
25640;DHT22;13497;48.322;16.204;2023-12-29T08:30:22;7.40;99.90
25640;DHT22;13497;48.322;16.204;2023-12-29T08:32:48;7.50;99.90
25640;DHT22;13497;48.322;16.204;2023-12-29T08:35:14;7.70;99.90
25640;DHT22;13497;48.322;16.204;2023-12-29T08:37:40;7.80;99.90
25640;DHT22;13497;48.322;16.204;2023-12-29T08:40:06;8.00;99.90
25640;DHT22;13497;48.322;16.204;2023-12-29T08:42:32;8.00;99.90
25640;DHT22;13497;48.322;16.204;2023-12-29T08:44:59;8.20;99.90
25640;DHT22;13497;48.322;16.204;2023-12-29T08:47:25;8.40;99.90
25640;DHT22;13497;48.322;16.204;2023-12-29T08:49:50;8.40;99.90
25640;DHT22;13497;48.322;16.204;2023-12-29T08:52:16;8.40;99.90
25640;DHT22;13497;48.322;16.204;2023-12-29T08:54:42;8.50;99.90
25640;DHT22;13497;48.322;16.204;2023-12-29T08:57:08;8.50;99.90
25640;DHT22;13497;48.322;16.204;2023-12-29T08:59:33;8.50;99.90
25640;DHT22;13497;48.322;16.204;2023-12-29T09:01:59;8.60;99.90
25640;DHT22;13497;48.322;16.204;2023-12-29T09:04:25;8.70;99.90
25640;DHT22;13497;48.322;16.204;2023-12-29T09:06:51;8.80;99.90
25640;DHT22;13497;48.322;16.204;2023-12-29T09:09:17;8.90;99.90
25640;DHT22;13497;48.322;16.204;2023-12-29T09:11:43;9.00;99.90
25640;DHT22;13497;48.322;16.204;2023-12-29T09:14:09;9.10;99.90
25640;DHT22;13497;48.322;16.204;2023-12-29T09:16:38;9.10;99.90
25640;DHT22;13497;48.322;16.204;2023-12-29T09:19:03;9.30;99.90
25640;DHT22;13497;48.322;16.204;2023-12-29T09:21:29;9.40;99.90
25640;DHT22;13497;48.322;16.204;2023-12-29T09:23:57;9.50;99.90
25640;DHT22;13497;48.322;16.204;2023-12-29T09:26:24;9.60;99.90
25640;DHT22;13497;48.322;16.204;2023-12-29T09:28:49;9.50;99.90
25640;DHT22;13497;48.322;16.204;2023-12-29T09:31:15;9.60;99.90
25640;DHT22;13497;48.322;16.204;2023-12-29T09:33:41;9.60;99.90
25640;DHT22;13497;48.322;16.204;2023-12-29T09:36:06;9.60;99.90
25640;DHT22;13497;48.322;16.204;2023-12-29T09:38:33;9.70;99.90
25640;DHT22;13497;48.322;16.204;2023-12-29T09:41:02;9.70;99.90
25640;DHT22;13497;48.322;16.204;2023-12-29T09:43:31;9.70;99.90
25640;DHT22;13497;48.322;16.204;2023-12-29T09:45:58;9.80;99.90
25640;DHT22;13497;48.322;16.204;2023-12-29T09:48:26;9.90;99.90
25640;DHT22;13497;48.322;16.204;2023-12-29T09:50:54;10.00;99.90
25640;DHT22;13497;48.322;16.204;2023-12-29T09:53:23;10.10;99.90
25640;DHT22;13497;48.322;16.204;2023-12-29T09:55:51;10.30;99.90
25640;DHT22;13497;48.322;16.204;2023-12-29T09:58:20;10.50;99.90
25640;DHT22;13497;48.322;16.204;2023-12-29T10:00:47;10.80;99.90
25640;DHT22;13497;48.322;16.204;2023-12-29T10:03:15;11.40;99.90
25640;DHT22;13497;48.322;16.204;2023-12-29T10:05:40;11.80;99.90
25640;DHT22;13497;48.322;16.204;2023-12-29T10:08:07;12.10;99.90
25640;DHT22;13497;48.322;16.204;2023-12-29T10:10:35;12.30;99.90
25640;DHT22;13497;48.322;16.204;2023-12-29T10:13:04;12.40;99.90
25640;DHT22;13497;48.322;16.204;2023-12-29T10:15:57;12.50;99.90
25640;DHT22;13497;48.322;16.204;2023-12-29T10:18:44;12.70;99.90
25640;DHT22;13497;48.322;16.204;2023-12-29T10:21:26;12.70;99.90
25640;DHT22;13497;48.322;16.204;2023-12-29T10:26:18;12.60;99.90
25640;DHT22;13497;48.322;16.204;2023-12-29T10:28:47;12.60;99.80
25640;DHT22;13497;48.322;16.204;2023-12-29T10:31:15;12.60;99.90
25640;DHT22;13497;48.322;16.204;2023-12-29T10:33:40;12.70;99.60
25640;DHT22;13497;48.322;16.204;2023-12-29T10:36:06;12.70;99.10
25640;DHT22;13497;48.322;16.204;2023-12-29T10:38:34;12.90;98.70
25640;DHT22;13497;48.322;16.204;2023-12-29T10:41:14;13.00;98.40
25640;DHT22;13497;48.322;16.204;2023-12-29T10:43:46;13.10;97.90
25640;DHT22;13497;48.322;16.204;2023-12-29T10:46:13;13.20;98.30
25640;DHT22;13497;48.322;16.204;2023-12-29T10:48:39;13.20;98.30
25640;DHT22;13497;48.322;16.204;2023-12-29T10:51:06;13.30;98.10
25640;DHT22;13497;48.322;16.204;2023-12-29T10:53:32;13.30;98.10
25640;DHT22;13497;48.322;16.204;2023-12-29T10:55:58;13.40;98.20
25640;DHT22;13497;48.322;16.204;2023-12-29T10:58:28;13.50;98.20
25640;DHT22;13497;48.322;16.204;2023-12-29T11:00:58;13.60;98.20
25640;DHT22;13497;48.322;16.204;2023-12-29T11:03:25;13.70;97.80
25640;DHT22;13497;48.322;16.204;2023-12-29T11:05:58;13.70;98.10
25640;DHT22;13497;48.322;16.204;2023-12-29T11:08:27;13.80;97.60
25640;DHT22;13497;48.322;16.204;2023-12-29T11:10:54;13.90;97.50
25640;DHT22;13497;48.322;16.204;2023-12-29T11:13:21;13.90;97.50
25640;DHT22;13497;48.322;16.204;2023-12-29T11:15:47;13.90;97.40
25640;DHT22;13497;48.322;16.204;2023-12-29T11:18:15;13.90;97.30
25640;DHT22;13497;48.322;16.204;2023-12-29T11:20:45;13.90;97.20
25640;DHT22;13497;48.322;16.204;2023-12-29T11:23:11;13.90;97.30
25640;DHT22;13497;48.322;16.204;2023-12-29T11:25:39;13.90;97.40
25640;DHT22;13497;48.322;16.204;2023-12-29T11:28:10;13.80;97.60
25640;DHT22;13497;48.322;16.204;2023-12-29T11:30:37;13.70;97.60
25640;DHT22;13497;48.322;16.204;2023-12-29T11:33:27;13.70;97.60
25640;DHT22;13497;48.322;16.204;2023-12-29T11:36:12;13.70;98.00
25640;DHT22;13497;48.322;16.204;2023-12-29T11:38:58;13.90;97.60
25640;DHT22;13497;48.322;16.204;2023-12-29T11:44:00;14.00;97.80
25640;DHT22;13497;48.322;16.204;2023-12-29T11:46:37;14.10;97.50
25640;DHT22;13497;48.322;16.204;2023-12-29T11:49:03;14.10;97.30
25640;DHT22;13497;48.322;16.204;2023-12-29T11:51:36;14.10;97.60
25640;DHT22;13497;48.322;16.204;2023-12-29T11:54:05;14.20;97.30
25640;DHT22;13497;48.322;16.204;2023-12-29T11:56:42;14.20;97.00
25640;DHT22;13497;48.322;16.204;2023-12-29T11:59:24;14.20;96.80
25640;DHT22;13497;48.322;16.204;2023-12-29T12:01:52;14.20;96.70
25640;DHT22;13497;48.322;16.204;2023-12-29T12:04:40;14.20;96.80
25640;DHT22;13497;48.322;16.204;2023-12-29T12:07:56;14.20;96.60
25640;DHT22;13497;48.322;16.204;2023-12-29T12:10:29;14.20;96.70
25640;DHT22;13497;48.322;16.204;2023-12-29T12:12:59;14.00;97.00
25640;DHT22;13497;48.322;16.204;2023-12-29T12:17:56;13.80;96.90
25640;DHT22;13497;48.322;16.204;2023-12-29T12:20:22;13.80;96.90
25640;DHT22;13497;48.322;16.204;2023-12-29T12:22:56;13.70;96.90
25640;DHT22;13497;48.322;16.204;2023-12-29T12:25:27;13.70;97.00
25640;DHT22;13497;48.322;16.204;2023-12-29T12:27:56;13.60;97.00
25640;DHT22;13497;48.322;16.204;2023-12-29T12:30:22;13.60;97.00
25640;DHT22;13497;48.322;16.204;2023-12-29T12:33:04;13.60;97.00
25640;DHT22;13497;48.322;16.204;2023-12-29T12:35:30;13.60;97.00
25640;DHT22;13497;48.322;16.204;2023-12-29T12:38:15;13.60;97.20
25640;DHT22;13497;48.322;16.204;2023-12-29T12:40:47;13.60;97.20
25640;DHT22;13497;48.322;16.204;2023-12-29T12:43:16;13.50;97.10
25640;DHT22;13497;48.322;16.204;2023-12-29T12:45:54;13.40;97.40
25640;DHT22;13497;48.322;16.204;2023-12-29T12:48:29;13.40;97.60
25640;DHT22;13497;48.322;16.204;2023-12-29T12:50:57;13.40;97.40
25640;DHT22;13497;48.322;16.204;2023-12-29T12:53:25;13.30;97.50
25640;DHT22;13497;48.322;16.204;2023-12-29T12:55:52;13.30;97.40
25640;DHT22;13497;48.322;16.204;2023-12-29T12:58:18;13.20;97.20
25640;DHT22;13497;48.322;16.204;2023-12-29T13:00:46;13.20;97.20
25640;DHT22;13497;48.322;16.204;2023-12-29T13:03:12;13.20;97.30
25640;DHT22;13497;48.322;16.204;2023-12-29T13:05:38;13.20;97.10
25640;DHT22;13497;48.322;16.204;2023-12-29T13:08:06;13.20;97.00
25640;DHT22;13497;48.322;16.204;2023-12-29T13:10:32;13.20;96.90
25640;DHT22;13497;48.322;16.204;2023-12-29T13:12:57;13.20;96.90
25640;DHT22;13497;48.322;16.204;2023-12-29T13:15:23;13.20;96.90
25640;DHT22;13497;48.322;16.204;2023-12-29T13:17:53;13.20;96.80
25640;DHT22;13497;48.322;16.204;2023-12-29T13:20:19;13.20;96.80
25640;DHT22;13497;48.322;16.204;2023-12-29T13:22:51;13.20;96.80
25640;DHT22;13497;48.322;16.204;2023-12-29T13:25:21;13.10;96.80
25640;DHT22;13497;48.322;16.204;2023-12-29T13:27:50;13.10;97.30
25640;DHT22;13497;48.322;16.204;2023-12-29T13:30:16;13.10;97.00
25640;DHT22;13497;48.322;16.204;2023-12-29T13:32:45;13.10;97.10
25640;DHT22;13497;48.322;16.204;2023-12-29T13:35:31;13.00;97.20
25640;DHT22;13497;48.322;16.204;2023-12-29T13:38:09;13.00;97.20
25640;DHT22;13497;48.322;16.204;2023-12-29T13:40:43;13.00;97.20
25640;DHT22;13497;48.322;16.204;2023-12-29T13:43:12;12.90;97.20
25640;DHT22;13497;48.322;16.204;2023-12-29T13:45:40;12.90;97.40
25640;DHT22;13497;48.322;16.204;2023-12-29T13:48:10;12.80;97.50
25640;DHT22;13497;48.322;16.204;2023-12-29T13:50:36;12.80;97.50
25640;DHT22;13497;48.322;16.204;2023-12-29T13:53:02;12.80;97.50
25640;DHT22;13497;48.322;16.204;2023-12-29T13:55:28;12.80;97.50
25640;DHT22;13497;48.322;16.204;2023-12-29T13:57:54;12.70;97.50
25640;DHT22;13497;48.322;16.204;2023-12-29T14:00:25;12.70;97.80
25640;DHT22;13497;48.322;16.204;2023-12-29T14:05:27;12.70;97.70
25640;DHT22;13497;48.322;16.204;2023-12-29T14:08:00;12.60;97.90
25640;DHT22;13497;48.322;16.204;2023-12-29T14:10:34;12.60;97.80
25640;DHT22;13497;48.322;16.204;2023-12-29T14:15:37;12.50;97.80
25640;DHT22;13497;48.322;16.204;2023-12-29T14:20:40;12.40;97.80
25640;DHT22;13497;48.322;16.204;2023-12-29T14:23:06;12.50;97.40
25640;DHT22;13497;48.322;16.204;2023-12-29T14:25:36;12.50;97.40
25640;DHT22;13497;48.322;16.204;2023-12-29T14:28:15;12.50;97.10
25640;DHT22;13497;48.322;16.204;2023-12-29T14:30:41;12.50;97.00
25640;DHT22;13497;48.322;16.204;2023-12-29T14:33:07;12.50;97.00
25640;DHT22;13497;48.322;16.204;2023-12-29T14:35:33;12.50;97.00
25640;DHT22;13497;48.322;16.204;2023-12-29T14:37:59;12.60;97.00
25640;DHT22;13497;48.322;16.204;2023-12-29T14:40:25;12.50;96.90
25640;DHT22;13497;48.322;16.204;2023-12-29T14:42:51;12.50;97.00
25640;DHT22;13497;48.322;16.204;2023-12-29T14:45:16;12.50;97.00
25640;DHT22;13497;48.322;16.204;2023-12-29T14:47:42;12.50;97.10
25640;DHT22;13497;48.322;16.204;2023-12-29T14:50:09;12.50;97.00
25640;DHT22;13497;48.322;16.204;2023-12-29T14:52:35;12.40;97.30
25640;DHT22;13497;48.322;16.204;2023-12-29T14:55:00;12.40;97.40
25640;DHT22;13497;48.322;16.204;2023-12-29T14:57:26;12.40;97.70
25640;DHT22;13497;48.322;16.204;2023-12-29T14:59:52;12.30;97.90
25640;DHT22;13497;48.322;16.204;2023-12-29T15:02:18;12.20;98.00
25640;DHT22;13497;48.322;16.204;2023-12-29T15:04:44;12.30;97.90
25640;DHT22;13497;48.322;16.204;2023-12-29T15:07:10;12.30;97.90
25640;DHT22;13497;48.322;16.204;2023-12-29T15:09:36;12.30;97.90
25640;DHT22;13497;48.322;16.204;2023-12-29T15:12:02;12.20;98.10
25640;DHT22;13497;48.322;16.204;2023-12-29T15:14:28;12.20;98.00
25640;DHT22;13497;48.322;16.204;2023-12-29T15:16:54;12.10;98.20
25640;DHT22;13497;48.322;16.204;2023-12-29T15:19:19;12.00;98.40
25640;DHT22;13497;48.322;16.204;2023-12-29T15:21:46;12.00;98.40
25640;DHT22;13497;48.322;16.204;2023-12-29T15:24:12;12.00;98.40
25640;DHT22;13497;48.322;16.204;2023-12-29T15:26:37;12.00;98.50
25640;DHT22;13497;48.322;16.204;2023-12-29T15:29:03;12.10;98.60
25640;DHT22;13497;48.322;16.204;2023-12-29T15:31:29;12.10;98.70
25640;DHT22;13497;48.322;16.204;2023-12-29T15:33:55;12.10;98.80
25640;DHT22;13497;48.322;16.204;2023-12-29T15:36:21;12.10;98.80
25640;DHT22;13497;48.322;16.204;2023-12-29T15:38:51;12.10;99.00
25640;DHT22;13497;48.322;16.204;2023-12-29T15:41:17;12.10;99.00
25640;DHT22;13497;48.322;16.204;2023-12-29T15:43:43;12.10;99.10